sensor_id;sensor_type;location;lat;lon;timestamp;temperature;humidity
7842;DHT22;3966;51.052;13.820;2022-12-18T00:01:19;-6.60;99.90
7842;DHT22;3966;51.052;13.820;2022-12-18T00:03:45;-6.50;99.90
7842;DHT22;3966;51.052;13.820;2022-12-18T00:06:11;-6.40;99.90
7842;DHT22;3966;51.052;13.820;2022-12-18T00:08:37;-6.40;99.90
7842;DHT22;3966;51.052;13.820;2022-12-18T00:11:04;-6.50;99.90
7842;DHT22;3966;51.052;13.820;2022-12-18T00:13:30;-6.50;99.90
7842;DHT22;3966;51.052;13.820;2022-12-18T00:15:55;-6.50;99.90
7842;DHT22;3966;51.052;13.820;2022-12-18T00:18:26;-6.70;99.90
7842;DHT22;3966;51.052;13.820;2022-12-18T00:20:52;-6.90;99.90
7842;DHT22;3966;51.052;13.820;2022-12-18T00:23:17;-6.90;99.90
7842;DHT22;3966;51.052;13.820;2022-12-18T00:25:43;-6.80;99.90
7842;DHT22;3966;51.052;13.820;2022-12-18T00:28:09;-6.80;99.90
7842;DHT22;3966;51.052;13.820;2022-12-18T00:30:34;-6.70;99.90
7842;DHT22;3966;51.052;13.820;2022-12-18T00:33:00;-6.70;99.90
7842;DHT22;3966;51.052;13.820;2022-12-18T00:35:25;-6.60;99.90
7842;DHT22;3966;51.052;13.820;2022-12-18T00:37:51;-6.60;99.90
7842;DHT22;3966;51.052;13.820;2022-12-18T00:40:17;-6.60;99.90
7842;DHT22;3966;51.052;13.820;2022-12-18T00:42:42;-6.50;99.90
7842;DHT22;3966;51.052;13.820;2022-12-18T00:45:24;-6.70;99.90
7842;DHT22;3966;51.052;13.820;2022-12-18T00:47:51;-6.60;99.90
7842;DHT22;3966;51.052;13.820;2022-12-18T00:50:16;-6.70;99.90
7842;DHT22;3966;51.052;13.820;2022-12-18T00:52:42;-6.60;99.90
7842;DHT22;3966;51.052;13.820;2022-12-18T00:55:08;-6.60;99.90
7842;DHT22;3966;51.052;13.820;2022-12-18T00:57:34;-6.50;99.90
7842;DHT22;3966;51.052;13.820;2022-12-18T00:59:59;-6.60;99.90
7842;DHT22;3966;51.052;13.820;2022-12-18T01:02:25;-6.70;99.90
7842;DHT22;3966;51.052;13.820;2022-12-18T01:04:51;-6.70;99.90
7842;DHT22;3966;51.052;13.820;2022-12-18T01:07:16;-6.80;99.90
7842;DHT22;3966;51.052;13.820;2022-12-18T01:09:42;-6.90;99.90
7842;DHT22;3966;51.052;13.820;2022-12-18T01:12:08;-6.90;99.90
7842;DHT22;3966;51.052;13.820;2022-12-18T01:14:33;-7.00;99.90
7842;DHT22;3966;51.052;13.820;2022-12-18T01:16:59;-7.10;99.90
7842;DHT22;3966;51.052;13.820;2022-12-18T01:19:25;-7.10;99.90
7842;DHT22;3966;51.052;13.820;2022-12-18T01:21:50;-7.10;99.90
7842;DHT22;3966;51.052;13.820;2022-12-18T01:24:16;-7.00;99.90
7842;DHT22;3966;51.052;13.820;2022-12-18T01:26:41;-7.00;99.90
7842;DHT22;3966;51.052;13.820;2022-12-18T01:29:07;-7.00;99.90
7842;DHT22;3966;51.052;13.820;2022-12-18T01:31:33;-7.00;99.90
7842;DHT22;3966;51.052;13.820;2022-12-18T01:34:03;-7.00;99.90
7842;DHT22;3966;51.052;13.820;2022-12-18T01:36:31;-7.00;99.90
7842;DHT22;3966;51.052;13.820;2022-12-18T01:39:00;-7.00;99.90
7842;DHT22;3966;51.052;13.820;2022-12-18T01:41:29;-7.10;99.90
7842;DHT22;3966;51.052;13.820;2022-12-18T01:50:44;-7.10;99.90
7842;DHT22;3966;51.052;13.820;2022-12-18T01:53:22;-7.20;99.90
7842;DHT22;3966;51.052;13.820;2022-12-18T01:55:55;-7.10;99.90
7842;DHT22;3966;51.052;13.820;2022-12-18T02:00:55;-7.10;99.90
7842;DHT22;3966;51.052;13.820;2022-12-18T02:03:20;-7.30;99.90
7842;DHT22;3966;51.052;13.820;2022-12-18T02:08:41;-7.30;99.90
7842;DHT22;3966;51.052;13.820;2022-12-18T02:14:12;-7.40;99.90
7842;DHT22;3966;51.052;13.820;2022-12-18T02:16:45;-7.40;99.90
7842;DHT22;3966;51.052;13.820;2022-12-18T02:23:11;-7.30;99.90
7842;DHT22;3966;51.052;13.820;2022-12-18T02:27:52;-7.30;99.90
7842;DHT22;3966;51.052;13.820;2022-12-18T02:30:19;-7.30;99.90
7842;DHT22;3966;51.052;13.820;2022-12-18T02:32:51;-7.20;99.90
7842;DHT22;3966;51.052;13.820;2022-12-18T02:35:22;-7.30;99.90
7842;DHT22;3966;51.052;13.820;2022-12-18T02:37:49;-7.40;99.90
7842;DHT22;3966;51.052;13.820;2022-12-18T02:40:19;-7.40;99.90
7842;DHT22;3966;51.052;13.820;2022-12-18T02:42:46;-7.40;99.90
7842;DHT22;3966;51.052;13.820;2022-12-18T02:45:11;-7.50;99.90
7842;DHT22;3966;51.052;13.820;2022-12-18T02:47:40;-7.50;99.90
7842;DHT22;3966;51.052;13.820;2022-12-18T02:58:21;-7.50;99.90
7842;DHT22;3966;51.052;13.820;2022-12-18T03:03:29;-7.50;99.90
7842;DHT22;3966;51.052;13.820;2022-12-18T03:08:51;-7.80;99.90
7842;DHT22;3966;51.052;13.820;2022-12-18T03:11:18;-7.70;99.90
7842;DHT22;3966;51.052;13.820;2022-12-18T03:14:06;-7.80;99.90
7842;DHT22;3966;51.052;13.820;2022-12-18T03:16:33;-7.70;99.90
7842;DHT22;3966;51.052;13.820;2022-12-18T03:19:22;-7.70;99.90
7842;DHT22;3966;51.052;13.820;2022-12-18T03:21:52;-7.60;99.90
7842;DHT22;3966;51.052;13.820;2022-12-18T03:24:20;-7.60;99.90
7842;DHT22;3966;51.052;13.820;2022-12-18T03:26:47;-7.70;99.90
7842;DHT22;3966;51.052;13.820;2022-12-18T03:29:22;-7.60;99.90
7842;DHT22;3966;51.052;13.820;2022-12-18T03:31:55;-7.50;99.90
7842;DHT22;3966;51.052;13.820;2022-12-18T03:34:28;-7.60;99.90
7842;DHT22;3966;51.052;13.820;2022-12-18T03:36:55;-7.70;99.90
7842;DHT22;3966;51.052;13.820;2022-12-18T03:39:20;-7.70;99.90
7842;DHT22;3966;51.052;13.820;2022-12-18T03:42:01;-7.80;99.90
7842;DHT22;3966;51.052;13.820;2022-12-18T03:44:38;-7.70;99.90
7842;DHT22;3966;51.052;13.820;2022-12-18T03:47:23;-7.70;99.90
7842;DHT22;3966;51.052;13.820;2022-12-18T03:55:30;-7.60;99.90
7842;DHT22;3966;51.052;13.820;2022-12-18T03:57:59;-7.60;99.90
7842;DHT22;3966;51.052;13.820;2022-12-18T04:00:28;-7.70;99.90
7842;DHT22;3966;51.052;13.820;2022-12-18T04:02:55;-7.70;99.90
7842;DHT22;3966;51.052;13.820;2022-12-18T04:05:24;-7.70;99.90
7842;DHT22;3966;51.052;13.820;2022-12-18T04:07:51;-7.70;99.90
7842;DHT22;3966;51.052;13.820;2022-12-18T04:10:18;-7.90;99.90
7842;DHT22;3966;51.052;13.820;2022-12-18T04:12:44;-7.90;99.90
7842;DHT22;3966;51.052;13.820;2022-12-18T04:15:11;-7.80;99.90
7842;DHT22;3966;51.052;13.820;2022-12-18T04:17:38;-7.80;99.90
7842;DHT22;3966;51.052;13.820;2022-12-18T04:20:04;-7.80;99.90
7842;DHT22;3966;51.052;13.820;2022-12-18T04:22:30;-7.80;99.90
7842;DHT22;3966;51.052;13.820;2022-12-18T04:24:55;-7.70;99.90
7842;DHT22;3966;51.052;13.820;2022-12-18T04:27:21;-7.70;99.90
7842;DHT22;3966;51.052;13.820;2022-12-18T04:29:47;-7.80;99.90
7842;DHT22;3966;51.052;13.820;2022-12-18T04:32:12;-7.80;99.90
7842;DHT22;3966;51.052;13.820;2022-12-18T04:34:38;-7.80;99.90
7842;DHT22;3966;51.052;13.820;2022-12-18T04:37:04;-7.80;99.90
7842;DHT22;3966;51.052;13.820;2022-12-18T04:39:29;-7.80;99.90
7842;DHT22;3966;51.052;13.820;2022-12-18T04:41:55;-7.80;99.90
7842;DHT22;3966;51.052;13.820;2022-12-18T04:44:21;-7.80;99.90
7842;DHT22;3966;51.052;13.820;2022-12-18T04:46:46;-7.80;99.90
7842;DHT22;3966;51.052;13.820;2022-12-18T04:49:12;-7.90;99.90
7842;DHT22;3966;51.052;13.820;2022-12-18T04:51:38;-7.90;99.90
7842;DHT22;3966;51.052;13.820;2022-12-18T04:54:04;-7.90;99.90
7842;DHT22;3966;51.052;13.820;2022-12-18T04:56:31;-7.90;99.90
7842;DHT22;3966;51.052;13.820;2022-12-18T04:58:57;-7.90;99.90
7842;DHT22;3966;51.052;13.820;2022-12-18T05:01:22;-8.00;99.90
7842;DHT22;3966;51.052;13.820;2022-12-18T05:03:48;-8.00;99.90
7842;DHT22;3966;51.052;13.820;2022-12-18T05:06:14;-7.90;99.90
7842;DHT22;3966;51.052;13.820;2022-12-18T05:08:40;-7.90;99.90
7842;DHT22;3966;51.052;13.820;2022-12-18T05:11:12;-7.90;99.90
7842;DHT22;3966;51.052;13.820;2022-12-18T05:13:39;-8.00;99.90
7842;DHT22;3966;51.052;13.820;2022-12-18T05:16:05;-8.00;99.90
7842;DHT22;3966;51.052;13.820;2022-12-18T05:18:31;-8.00;99.90
7842;DHT22;3966;51.052;13.820;2022-12-18T05:20:57;-8.00;99.90
7842;DHT22;3966;51.052;13.820;2022-12-18T05:23:23;-8.00;99.90
7842;DHT22;3966;51.052;13.820;2022-12-18T05:26:03;-8.00;99.90
7842;DHT22;3966;51.052;13.820;2022-12-18T05:28:31;-8.00;99.90
7842;DHT22;3966;51.052;13.820;2022-12-18T05:30:59;-8.10;99.90
7842;DHT22;3966;51.052;13.820;2022-12-18T05:33:28;-8.00;99.90
7842;DHT22;3966;51.052;13.820;2022-12-18T05:35:56;-8.00;99.90
7842;DHT22;3966;51.052;13.820;2022-12-18T05:38:23;-8.00;99.90
7842;DHT22;3966;51.052;13.820;2022-12-18T05:40:49;-8.00;99.90
7842;DHT22;3966;51.052;13.820;2022-12-18T05:43:15;-8.00;99.90
7842;DHT22;3966;51.052;13.820;2022-12-18T05:45:41;-8.00;99.90
7842;DHT22;3966;51.052;13.820;2022-12-18T05:48:09;-8.00;99.90
7842;DHT22;3966;51.052;13.820;2022-12-18T05:50:39;-8.00;99.90
7842;DHT22;3966;51.052;13.820;2022-12-18T05:53:06;-8.10;99.90
7842;DHT22;3966;51.052;13.820;2022-12-18T05:55:34;-8.00;99.90
7842;DHT22;3966;51.052;13.820;2022-12-18T05:58:00;-8.00;99.90
7842;DHT22;3966;51.052;13.820;2022-12-18T06:00:25;-8.00;99.90
7842;DHT22;3966;51.052;13.820;2022-12-18T06:02:51;-8.00;99.90
7842;DHT22;3966;51.052;13.820;2022-12-18T06:05:17;-8.00;99.90
7842;DHT22;3966;51.052;13.820;2022-12-18T06:07:42;-8.10;99.90
7842;DHT22;3966;51.052;13.820;2022-12-18T06:10:08;-8.10;99.90
7842;DHT22;3966;51.052;13.820;2022-12-18T06:12:34;-8.00;99.90
7842;DHT22;3966;51.052;13.820;2022-12-18T06:15:00;-8.00;99.90
7842;DHT22;3966;51.052;13.820;2022-12-18T06:17:32;-8.00;99.90
7842;DHT22;3966;51.052;13.820;2022-12-18T06:19:58;-8.00;99.90
7842;DHT22;3966;51.052;13.820;2022-12-18T06:22:24;-8.00;99.90
7842;DHT22;3966;51.052;13.820;2022-12-18T06:24:50;-8.10;99.90
7842;DHT22;3966;51.052;13.820;2022-12-18T06:27:16;-8.00;99.90
7842;DHT22;3966;51.052;13.820;2022-12-18T06:29:42;-8.00;99.90
7842;DHT22;3966;51.052;13.820;2022-12-18T06:32:07;-8.10;99.90
7842;DHT22;3966;51.052;13.820;2022-12-18T06:34:34;-8.20;99.90
7842;DHT22;3966;51.052;13.820;2022-12-18T06:36:59;-8.20;99.90
7842;DHT22;3966;51.052;13.820;2022-12-18T06:39:27;-8.10;99.90
7842;DHT22;3966;51.052;13.820;2022-12-18T06:41:53;-8.10;99.90
7842;DHT22;3966;51.052;13.820;2022-12-18T06:44:19;-8.20;99.90
7842;DHT22;3966;51.052;13.820;2022-12-18T06:46:45;-8.20;99.90
7842;DHT22;3966;51.052;13.820;2022-12-18T06:49:10;-8.20;99.90
7842;DHT22;3966;51.052;13.820;2022-12-18T06:51:36;-8.20;99.90
7842;DHT22;3966;51.052;13.820;2022-12-18T06:54:02;-8.10;99.90
7842;DHT22;3966;51.052;13.820;2022-12-18T06:56:28;-8.10;99.90
7842;DHT22;3966;51.052;13.820;2022-12-18T06:58:53;-8.20;99.90
7842;DHT22;3966;51.052;13.820;2022-12-18T07:01:20;-8.20;99.90
7842;DHT22;3966;51.052;13.820;2022-12-18T07:03:46;-8.20;99.90
7842;DHT22;3966;51.052;13.820;2022-12-18T07:06:17;-8.20;99.90
7842;DHT22;3966;51.052;13.820;2022-12-18T07:08:44;-8.20;99.90
7842;DHT22;3966;51.052;13.820;2022-12-18T07:11:10;-8.20;99.90
7842;DHT22;3966;51.052;13.820;2022-12-18T07:13:35;-8.20;99.90
7842;DHT22;3966;51.052;13.820;2022-12-18T07:16:06;-8.20;99.90
7842;DHT22;3966;51.052;13.820;2022-12-18T07:18:32;-8.20;99.90
7842;DHT22;3966;51.052;13.820;2022-12-18T07:20:57;-8.20;99.90
7842;DHT22;3966;51.052;13.820;2022-12-18T07:23:23;-8.20;99.90
7842;DHT22;3966;51.052;13.820;2022-12-18T07:25:49;-8.20;99.90
7842;DHT22;3966;51.052;13.820;2022-12-18T07:28:14;-8.20;99.90
7842;DHT22;3966;51.052;13.820;2022-12-18T07:30:40;-8.10;99.90
7842;DHT22;3966;51.052;13.820;2022-12-18T07:33:06;-8.10;99.90
7842;DHT22;3966;51.052;13.820;2022-12-18T07:35:33;-8.10;99.90
7842;DHT22;3966;51.052;13.820;2022-12-18T07:38:00;-8.10;99.90
7842;DHT22;3966;51.052;13.820;2022-12-18T07:40:25;-8.10;99.90
7842;DHT22;3966;51.052;13.820;2022-12-18T07:42:51;-8.10;99.90
7842;DHT22;3966;51.052;13.820;2022-12-18T07:45:17;-8.10;99.90
7842;DHT22;3966;51.052;13.820;2022-12-18T07:47:42;-8.00;99.90
7842;DHT22;3966;51.052;13.820;2022-12-18T07:50:08;-8.00;99.90
7842;DHT22;3966;51.052;13.820;2022-12-18T07:52:34;-8.00;99.90
7842;DHT22;3966;51.052;13.820;2022-12-18T07:55:00;-7.90;99.90
7842;DHT22;3966;51.052;13.820;2022-12-18T07:57:26;-8.00;99.90
7842;DHT22;3966;51.052;13.820;2022-12-18T07:59:51;-8.00;99.90
7842;DHT22;3966;51.052;13.820;2022-12-18T08:02:17;-7.90;99.90
7842;DHT22;3966;51.052;13.820;2022-12-18T08:04:42;-7.90;99.90
7842;DHT22;3966;51.052;13.820;2022-12-18T08:07:08;-7.90;99.90
7842;DHT22;3966;51.052;13.820;2022-12-18T08:09:34;-7.90;99.90
7842;DHT22;3966;51.052;13.820;2022-12-18T08:12:00;-7.90;99.90
7842;DHT22;3966;51.052;13.820;2022-12-18T08:14:25;-7.90;99.90
7842;DHT22;3966;51.052;13.820;2022-12-18T08:16:51;-7.90;99.90
7842;DHT22;3966;51.052;13.820;2022-12-18T08:19:17;-7.80;99.90
7842;DHT22;3966;51.052;13.820;2022-12-18T08:21:43;-7.80;99.90
7842;DHT22;3966;51.052;13.820;2022-12-18T08:24:09;-7.70;99.90
7842;DHT22;3966;51.052;13.820;2022-12-18T08:26:35;-7.70;99.90
7842;DHT22;3966;51.052;13.820;2022-12-18T08:29:01;-7.60;99.90
7842;DHT22;3966;51.052;13.820;2022-12-18T08:31:29;-7.50;99.90
7842;DHT22;3966;51.052;13.820;2022-12-18T08:33:55;-7.50;99.90
7842;DHT22;3966;51.052;13.820;2022-12-18T08:36:21;-7.40;99.90
7842;DHT22;3966;51.052;13.820;2022-12-18T08:38:47;-7.40;99.90
7842;DHT22;3966;51.052;13.820;2022-12-18T08:41:15;-7.40;99.90
7842;DHT22;3966;51.052;13.820;2022-12-18T08:43:41;-7.30;99.90
7842;DHT22;3966;51.052;13.820;2022-12-18T08:46:27;-7.40;99.90
7842;DHT22;3966;51.052;13.820;2022-12-18T08:48:56;-7.20;99.90
7842;DHT22;3966;51.052;13.820;2022-12-18T08:51:22;-7.10;99.90
7842;DHT22;3966;51.052;13.820;2022-12-18T08:53:47;-6.90;99.90
7842;DHT22;3966;51.052;13.820;2022-12-18T08:56:14;-6.80;99.90
7842;DHT22;3966;51.052;13.820;2022-12-18T08:58:40;-6.60;99.90
7842;DHT22;3966;51.052;13.820;2022-12-18T09:01:09;-6.50;99.90
7842;DHT22;3966;51.052;13.820;2022-12-18T09:03:35;-6.30;99.90
7842;DHT22;3966;51.052;13.820;2022-12-18T09:06:01;-6.10;99.90
7842;DHT22;3966;51.052;13.820;2022-12-18T09:08:27;-6.00;99.90
7842;DHT22;3966;51.052;13.820;2022-12-18T09:10:53;-5.90;99.90
7842;DHT22;3966;51.052;13.820;2022-12-18T09:13:19;-5.60;99.90
7842;DHT22;3966;51.052;13.820;2022-12-18T09:15:51;-5.20;99.90
7842;DHT22;3966;51.052;13.820;2022-12-18T09:18:18;-4.90;99.90
7842;DHT22;3966;51.052;13.820;2022-12-18T09:20:44;-4.60;99.90
7842;DHT22;3966;51.052;13.820;2022-12-18T09:23:10;-4.30;99.90
7842;DHT22;3966;51.052;13.820;2022-12-18T09:25:37;-4.00;99.90
7842;DHT22;3966;51.052;13.820;2022-12-18T09:28:04;-3.70;99.90
7842;DHT22;3966;51.052;13.820;2022-12-18T09:30:30;-3.50;99.90
7842;DHT22;3966;51.052;13.820;2022-12-18T09:32:58;-3.20;99.90
7842;DHT22;3966;51.052;13.820;2022-12-18T09:35:24;-2.90;99.90
7842;DHT22;3966;51.052;13.820;2022-12-18T09:37:50;-2.80;99.90
7842;DHT22;3966;51.052;13.820;2022-12-18T09:40:19;-2.70;99.90
7842;DHT22;3966;51.052;13.820;2022-12-18T09:42:52;-2.50;99.90
7842;DHT22;3966;51.052;13.820;2022-12-18T09:45:20;-2.40;99.90
7842;DHT22;3966;51.052;13.820;2022-12-18T09:47:47;-2.40;99.90
7842;DHT22;3966;51.052;13.820;2022-12-18T09:50:31;-2.30;99.90
7842;DHT22;3966;51.052;13.820;2022-12-18T09:53:02;-2.10;99.90
7842;DHT22;3966;51.052;13.820;2022-12-18T09:55:45;-1.80;99.90
7842;DHT22;3966;51.052;13.820;2022-12-18T10:00:44;-1.50;99.90
7842;DHT22;3966;51.052;13.820;2022-12-18T10:03:12;-1.50;99.90
7842;DHT22;3966;51.052;13.820;2022-12-18T10:08:43;-1.30;99.90
7842;DHT22;3966;51.052;13.820;2022-12-18T10:19:36;-0.80;99.90
7842;DHT22;3966;51.052;13.820;2022-12-18T10:27:16;-0.80;99.90
7842;DHT22;3966;51.052;13.820;2022-12-18T10:29:45;-0.70;99.90
7842;DHT22;3966;51.052;13.820;2022-12-18T10:32:21;-0.50;99.90
7842;DHT22;3966;51.052;13.820;2022-12-18T10:34:48;-0.30;99.90
7842;DHT22;3966;51.052;13.820;2022-12-18T10:37:20;-0.40;99.90
7842;DHT22;3966;51.052;13.820;2022-12-18T10:39:46;-0.30;99.90
7842;DHT22;3966;51.052;13.820;2022-12-18T10:42:29;-0.20;99.90
7842;DHT22;3966;51.052;13.820;2022-12-18T10:45:05;0.00;99.90
7842;DHT22;3966;51.052;13.820;2022-12-18T10:47:34;0.30;99.90
7842;DHT22;3966;51.052;13.820;2022-12-18T10:49:59;0.40;99.90
7842;DHT22;3966;51.052;13.820;2022-12-18T10:52:26;0.10;99.90
7842;DHT22;3966;51.052;13.820;2022-12-18T10:54:58;0.30;99.90
7842;DHT22;3966;51.052;13.820;2022-12-18T10:57:33;0.00;99.90
7842;DHT22;3966;51.052;13.820;2022-12-18T11:02:46;0.60;99.90
7842;DHT22;3966;51.052;13.820;2022-12-18T11:05:34;0.80;99.90
7842;DHT22;3966;51.052;13.820;2022-12-18T11:08:02;0.80;99.90
7842;DHT22;3966;51.052;13.820;2022-12-18T11:10:32;0.70;99.90
7842;DHT22;3966;51.052;13.820;2022-12-18T11:13:17;0.90;99.90
7842;DHT22;3966;51.052;13.820;2022-12-18T11:15:44;0.90;99.90
7842;DHT22;3966;51.052;13.820;2022-12-18T11:18:18;1.00;99.90
7842;DHT22;3966;51.052;13.820;2022-12-18T11:20:51;0.90;99.90
7842;DHT22;3966;51.052;13.820;2022-12-18T11:23:19;0.90;99.90
7842;DHT22;3966;51.052;13.820;2022-12-18T11:26:01;0.80;99.90
7842;DHT22;3966;51.052;13.820;2022-12-18T11:31:22;0.60;99.90
7842;DHT22;3966;51.052;13.820;2022-12-18T11:34:02;0.60;99.90
7842;DHT22;3966;51.052;13.820;2022-12-18T11:36:34;1.00;99.90
7842;DHT22;3966;51.052;13.820;2022-12-18T11:39:09;1.00;99.90
7842;DHT22;3966;51.052;13.820;2022-12-18T11:42:01;1.00;99.90
7842;DHT22;3966;51.052;13.820;2022-12-18T11:44:54;1.50;99.90
7842;DHT22;3966;51.052;13.820;2022-12-18T11:47:27;1.80;99.90
7842;DHT22;3966;51.052;13.820;2022-12-18T11:49:58;1.90;99.90
7842;DHT22;3966;51.052;13.820;2022-12-18T11:52:37;1.80;99.90
7842;DHT22;3966;51.052;13.820;2022-12-18T11:55:16;1.40;99.90
7842;DHT22;3966;51.052;13.820;2022-12-18T12:00:28;1.30;99.90
7842;DHT22;3966;51.052;13.820;2022-12-18T12:05:44;1.20;99.90
7842;DHT22;3966;51.052;13.820;2022-12-18T12:21:42;1.80;99.90
7842;DHT22;3966;51.052;13.820;2022-12-18T12:40:59;1.10;99.90
7842;DHT22;3966;51.052;13.820;2022-12-18T12:43:37;1.60;99.90
7842;DHT22;3966;51.052;13.820;2022-12-18T12:46:09;1.80;99.90
7842;DHT22;3966;51.052;13.820;2022-12-18T12:51:12;1.60;99.90
7842;DHT22;3966;51.052;13.820;2022-12-18T12:53:39;1.30;99.90
7842;DHT22;3966;51.052;13.820;2022-12-18T12:56:07;1.30;99.90
7842;DHT22;3966;51.052;13.820;2022-12-18T12:58:47;1.40;99.90
7842;DHT22;3966;51.052;13.820;2022-12-18T13:01:36;1.60;99.90
7842;DHT22;3966;51.052;13.820;2022-12-18T13:04:29;1.40;99.90
7842;DHT22;3966;51.052;13.820;2022-12-18T13:07:04;1.60;99.90
7842;DHT22;3966;51.052;13.820;2022-12-18T13:09:34;1.30;99.90
7842;DHT22;3966;51.052;13.820;2022-12-18T13:12:05;1.00;99.90
7842;DHT22;3966;51.052;13.820;2022-12-18T13:15:21;1.20;99.90
7842;DHT22;3966;51.052;13.820;2022-12-18T13:17:47;1.30;99.90
7842;DHT22;3966;51.052;13.820;2022-12-18T13:20:14;1.10;99.90
7842;DHT22;3966;51.052;13.820;2022-12-18T13:25:28;0.90;99.90
7842;DHT22;3966;51.052;13.820;2022-12-18T13:28:07;0.60;99.90
7842;DHT22;3966;51.052;13.820;2022-12-18T13:30:50;0.70;99.90
7842;DHT22;3966;51.052;13.820;2022-12-18T13:41:01;0.10;99.90
7842;DHT22;3966;51.052;13.820;2022-12-18T13:43:51;0.00;99.90
7842;DHT22;3966;51.052;13.820;2022-12-18T13:48:54;-0.10;99.90
7842;DHT22;3966;51.052;13.820;2022-12-18T13:51:21;-0.20;99.90
7842;DHT22;3966;51.052;13.820;2022-12-18T13:53:54;-0.10;99.90
7842;DHT22;3966;51.052;13.820;2022-12-18T13:56:29;-0.10;99.90
7842;DHT22;3966;51.052;13.820;2022-12-18T13:59:21;0.20;99.90
7842;DHT22;3966;51.052;13.820;2022-12-18T14:01:51;0.00;99.90
7842;DHT22;3966;51.052;13.820;2022-12-18T14:06:52;-0.20;99.90
7842;DHT22;3966;51.052;13.820;2022-12-18T14:09:23;-0.20;99.90
7842;DHT22;3966;51.052;13.820;2022-12-18T14:11:50;-0.30;99.90
7842;DHT22;3966;51.052;13.820;2022-12-18T14:14:17;-0.60;99.90
7842;DHT22;3966;51.052;13.820;2022-12-18T14:16:45;-0.60;99.90
7842;DHT22;3966;51.052;13.820;2022-12-18T14:19:16;-0.60;99.90
7842;DHT22;3966;51.052;13.820;2022-12-18T14:21:47;-0.70;99.90
7842;DHT22;3966;51.052;13.820;2022-12-18T14:24:21;-0.90;99.90
7842;DHT22;3966;51.052;13.820;2022-12-18T14:26:50;-1.00;99.90
7842;DHT22;3966;51.052;13.820;2022-12-18T14:29:30;-1.00;99.90
7842;DHT22;3966;51.052;13.820;2022-12-18T14:32:12;-1.10;99.90
7842;DHT22;3966;51.052;13.820;2022-12-18T14:34:39;-1.20;99.90
7842;DHT22;3966;51.052;13.820;2022-12-18T14:37:07;-1.40;99.90
7842;DHT22;3966;51.052;13.820;2022-12-18T14:39:34;-1.50;99.90
7842;DHT22;3966;51.052;13.820;2022-12-18T14:42:00;-1.60;99.90
7842;DHT22;3966;51.052;13.820;2022-12-18T14:44:25;-1.60;99.90
7842;DHT22;3966;51.052;13.820;2022-12-18T14:46:51;-1.70;99.90
7842;DHT22;3966;51.052;13.820;2022-12-18T14:49:30;-1.80;99.90
7842;DHT22;3966;51.052;13.820;2022-12-18T14:52:24;-1.90;99.90
7842;DHT22;3966;51.052;13.820;2022-12-18T14:54:52;-2.00;99.90
7842;DHT22;3966;51.052;13.820;2022-12-18T14:57:25;-2.00;99.90
7842;DHT22;3966;51.052;13.820;2022-12-18T15:00:04;-2.10;99.90
7842;DHT22;3966;51.052;13.820;2022-12-18T15:02:30;-2.00;99.90
7842;DHT22;3966;51.052;13.820;2022-12-18T15:07:46;-2.30;99.90
7842;DHT22;3966;51.052;13.820;2022-12-18T15:13:07;-2.30;99.90
7842;DHT22;3966;51.052;13.820;2022-12-18T15:20:54;-2.40;99.90
7842;DHT22;3966;51.052;13.820;2022-12-18T15:23:21;-2.50;99.90
7842;DHT22;3966;51.052;13.820;2022-12-18T15:25:53;-2.50;99.90
7842;DHT22;3966;51.052;13.820;2022-12-18T15:28:39;-2.60;99.90
7842;DHT22;3966;51.052;13.820;2022-12-18T15:33:41;-2.60;99.90
7842;DHT22;3966;51.052;13.820;2022-12-18T15:36:12;-2.60;99.90
7842;DHT22;3966;51.052;13.820;2022-12-18T15:38:38;-2.60;99.90
7842;DHT22;3966;51.052;13.820;2022-12-18T15:41:04;-2.60;99.90
7842;DHT22;3966;51.052;13.820;2022-12-18T15:43:33;-2.70;99.90
7842;DHT22;3966;51.052;13.820;2022-12-18T15:46:07;-2.70;99.90
7842;DHT22;3966;51.052;13.820;2022-12-18T15:48:38;-2.70;99.90
7842;DHT22;3966;51.052;13.820;2022-12-18T15:51:05;-2.80;99.90
7842;DHT22;3966;51.052;13.820;2022-12-18T15:53:34;-2.80;99.90
7842;DHT22;3966;51.052;13.820;2022-12-18T15:56:00;-2.80;99.90
7842;DHT22;3966;51.052;13.820;2022-12-18T15:58:44;-2.80;99.90
7842;DHT22;3966;51.052;13.820;2022-12-18T16:01:10;-2.80;99.90
7842;DHT22;3966;51.052;13.820;2022-12-18T16:03:36;-2.80;99.90
7842;DHT22;3966;51.052;13.820;2022-12-18T16:06:02;-2.80;99.90
7842;DHT22;3966;51.052;13.820;2022-12-18T16:08:31;-2.90;99.90
7842;DHT22;3966;51.052;13.820;2022-12-18T16:10:57;-2.90;99.90
7842;DHT22;3966;51.052;13.820;2022-12-18T16:13:23;-2.80;99.90
7842;DHT22;3966;51.052;13.820;2022-12-18T16:15:49;-2.90;99.90
7842;DHT22;3966;51.052;13.820;2022-12-18T16:18:15;-2.90;99.90
7842;DHT22;3966;51.052;13.820;2022-12-18T16:20:40;-2.90;99.90
7842;DHT22;3966;51.052;13.820;2022-12-18T16:23:06;-2.90;99.90
7842;DHT22;3966;51.052;13.820;2022-12-18T16:25:32;-2.90;99.90
7842;DHT22;3966;51.052;13.820;2022-12-18T16:27:58;-2.80;99.90
7842;DHT22;3966;51.052;13.820;2022-12-18T16:30:26;-2.80;99.90
7842;DHT22;3966;51.052;13.820;2022-12-18T16:32:59;-2.80;99.90
7842;DHT22;3966;51.052;13.820;2022-12-18T16:35:26;-2.80;99.90
7842;DHT22;3966;51.052;13.820;2022-12-18T16:37:52;-2.90;99.90
7842;DHT22;3966;51.052;13.820;2022-12-18T16:40:18;-2.90;99.90
7842;DHT22;3966;51.052;13.820;2022-12-18T16:42:45;-2.90;99.90
7842;DHT22;3966;51.052;13.820;2022-12-18T16:45:14;-2.90;99.90
7842;DHT22;3966;51.052;13.820;2022-12-18T16:47:40;-2.90;99.90
7842;DHT22;3966;51.052;13.820;2022-12-18T16:50:07;-3.00;99.90
7842;DHT22;3966;51.052;13.820;2022-12-18T16:52:33;-2.90;99.90
7842;DHT22;3966;51.052;13.820;2022-12-18T16:54:59;-2.90;99.90
7842;DHT22;3966;51.052;13.820;2022-12-18T16:57:25;-2.90;99.90
7842;DHT22;3966;51.052;13.820;2022-12-18T16:59:51;-2.90;99.90
7842;DHT22;3966;51.052;13.820;2022-12-18T17:02:21;-2.90;99.90
7842;DHT22;3966;51.052;13.820;2022-12-18T17:04:48;-2.90;99.90
7842;DHT22;3966;51.052;13.820;2022-12-18T17:07:14;-2.90;99.90
7842;DHT22;3966;51.052;13.820;2022-12-18T17:09:40;-2.90;99.90
7842;DHT22;3966;51.052;13.820;2022-12-18T17:12:06;-2.90;99.90
7842;DHT22;3966;51.052;13.820;2022-12-18T17:14:33;-2.90;99.90
7842;DHT22;3966;51.052;13.820;2022-12-18T17:16:59;-2.90;99.90
7842;DHT22;3966;51.052;13.820;2022-12-18T17:19:26;-2.90;99.90
7842;DHT22;3966;51.052;13.820;2022-12-18T17:21:52;-2.90;99.90
7842;DHT22;3966;51.052;13.820;2022-12-18T17:24:18;-2.90;99.90
7842;DHT22;3966;51.052;13.820;2022-12-18T17:26:45;-2.90;99.90
7842;DHT22;3966;51.052;13.820;2022-12-18T17:29:14;-2.90;99.90
7842;DHT22;3966;51.052;13.820;2022-12-18T17:31:40;-3.00;99.90
7842;DHT22;3966;51.052;13.820;2022-12-18T17:34:06;-3.00;99.90
7842;DHT22;3966;51.052;13.820;2022-12-18T17:36:32;-3.00;99.90
7842;DHT22;3966;51.052;13.820;2022-12-18T17:39:00;-3.00;99.90
7842;DHT22;3966;51.052;13.820;2022-12-18T17:41:27;-3.00;99.90
7842;DHT22;3966;51.052;13.820;2022-12-18T17:44:01;-3.00;99.90
7842;DHT22;3966;51.052;13.820;2022-12-18T17:46:29;-3.00;99.90
7842;DHT22;3966;51.052;13.820;2022-12-18T17:48:59;-2.90;99.90
7842;DHT22;3966;51.052;13.820;2022-12-18T17:51:26;-2.90;99.90
7842;DHT22;3966;51.052;13.820;2022-12-18T17:53:51;-2.90;99.90
7842;DHT22;3966;51.052;13.820;2022-12-18T17:56:19;-2.90;99.90
7842;DHT22;3966;51.052;13.820;2022-12-18T17:58:45;-2.90;99.90
7842;DHT22;3966;51.052;13.820;2022-12-18T18:01:13;-2.80;99.90
7842;DHT22;3966;51.052;13.820;2022-12-18T18:03:40;-2.80;99.90
7842;DHT22;3966;51.052;13.820;2022-12-18T18:06:06;-2.80;99.90
7842;DHT22;3966;51.052;13.820;2022-12-18T18:08:33;-2.80;99.90
7842;DHT22;3966;51.052;13.820;2022-12-18T18:11:08;-2.80;99.90